createdAt,value
2022-12-27T00:01:52.722Z,1.70
2022-12-27T00:04:20.482Z,1.70
2022-12-27T00:06:48.560Z,1.67
2022-12-27T00:09:16.304Z,2.03
2022-12-27T00:11:44.302Z,2.08
2022-12-27T00:14:12.289Z,1.92
2022-12-27T00:16:40.546Z,1.73
2022-12-27T00:19:08.400Z,2.00
2022-12-27T00:21:36.992Z,2.28
2022-12-27T00:24:05.811Z,1.92
2022-12-27T00:26:38.254Z,1.98
2022-12-27T00:29:07.994Z,2.70
2022-12-27T00:31:37.180Z,2.10
2022-12-27T00:34:07.955Z,1.80
2022-12-27T00:36:40.272Z,1.70
2022-12-27T00:39:11.244Z,1.80
2022-12-27T00:41:41.118Z,1.73
2022-12-27T00:44:09.579Z,1.75
2022-12-27T00:46:37.670Z,1.58
2022-12-27T00:49:05.873Z,2.20
2022-12-27T00:51:33.855Z,1.70
2022-12-27T00:54:02.107Z,2.63
2022-12-27T00:56:31.561Z,1.88
2022-12-27T00:59:02.756Z,1.80
2022-12-27T01:01:34.869Z,2.00
2022-12-27T01:04:03.917Z,2.40
2022-12-27T01:06:34.462Z,1.92
2022-12-27T01:09:04.208Z,1.45
2022-12-27T01:11:33.241Z,2.00
2022-12-27T01:14:03.984Z,1.88
2022-12-27T01:16:33.849Z,1.73
2022-12-27T01:19:02.569Z,2.10
2022-12-27T01:21:31.465Z,1.90
2022-12-27T01:23:59.585Z,2.10
2022-12-27T01:26:28.399Z,1.70
2022-12-27T01:28:56.212Z,2.05
2022-12-27T01:31:28.236Z,1.50
2022-12-27T01:33:59.568Z,2.10
2022-12-27T01:36:30.369Z,1.58
2022-12-27T01:39:01.127Z,1.80
2022-12-27T01:41:59.828Z,1.42
2022-12-27T01:44:40.436Z,1.55
2022-12-27T01:47:23.202Z,1.42
2022-12-27T01:49:57.208Z,1.65
2022-12-27T01:52:34.953Z,1.70
2022-12-27T01:55:25.052Z,1.30
2022-12-27T01:57:58.897Z,1.85
2022-12-27T02:00:26.758Z,1.45
2022-12-27T02:02:55.513Z,1.77
2022-12-27T02:05:25.715Z,1.75
2022-12-27T02:08:02.039Z,2.08
2022-12-27T02:10:30.466Z,1.90
2022-12-27T02:13:01.808Z,1.80
2022-12-27T02:15:29.538Z,1.88
2022-12-27T02:17:57.832Z,1.83
2022-12-27T02:20:32.398Z,1.67
2022-12-27T02:23:43.358Z,1.63
2022-12-27T02:26:45.186Z,1.88
2022-12-27T02:29:47.865Z,1.88
2022-12-27T02:32:35.750Z,1.70
2022-12-27T02:35:29.578Z,1.33
2022-12-27T02:38:20.364Z,2.13
2022-12-27T02:41:08.888Z,1.77
2022-12-27T02:43:58.028Z,1.70
2022-12-27T02:46:47.629Z,2.00
2022-12-27T02:49:46.073Z,2.10
2022-12-27T02:53:02.488Z,2.05
2022-12-27T02:56:11.158Z,2.03
2022-12-27T02:58:48.094Z,2.30
2022-12-27T03:02:12.795Z,1.90
2022-12-27T03:04:50.200Z,1.75
2022-12-27T03:07:45.153Z,1.50
2022-12-27T03:10:50.261Z,1.92
2022-12-27T03:13:52.583Z,1.70
2022-12-27T03:16:32.974Z,1.67
2022-12-27T03:19:09.242Z,1.90
2022-12-27T03:22:01.589Z,2.10
2022-12-27T03:24:52.206Z,1.80
2022-12-27T03:27:36.663Z,2.08
2022-12-27T03:30:27.965Z,1.88
2022-12-27T03:33:15.593Z,2.20
2022-12-27T03:36:08.607Z,2.30
2022-12-27T03:38:52.097Z,2.22
2022-12-27T03:42:03.369Z,1.73
2022-12-27T03:44:34.305Z,1.73
2022-12-27T03:47:37.912Z,2.03
2022-12-27T03:50:20.670Z,2.35
2022-12-27T03:52:56.683Z,1.80
2022-12-27T03:55:31.513Z,1.92
2022-12-27T03:58:01.535Z,2.15
2022-12-27T04:00:32.316Z,1.90
2022-12-27T04:03:00.375Z,2.40
2022-12-27T04:05:29.353Z,1.70
2022-12-27T04:08:16.188Z,1.85
2022-12-27T04:11:03.275Z,1.75
2022-12-27T04:13:50.061Z,2.10
2022-12-27T04:16:37.218Z,2.03
2022-12-27T04:19:24.054Z,2.42
2022-12-27T04:22:11.525Z,1.75
2022-12-27T04:24:58.044Z,2.00
2022-12-27T04:27:45.074Z,1.92
2022-12-27T04:30:31.546Z,1.90
2022-12-27T04:33:18.375Z,2.03
2022-12-27T04:35:46.661Z,2.25
2022-12-27T04:38:15.181Z,2.00
2022-12-27T04:41:01.656Z,2.17
2022-12-27T04:43:49.006Z,1.88
2022-12-27T04:46:42.571Z,1.90
2022-12-27T04:49:42.377Z,2.00
2022-12-27T04:52:38.350Z,2.00
2022-12-27T04:55:26.381Z,1.70
2022-12-27T04:57:55.245Z,1.85
2022-12-27T05:00:44.590Z,2.08
2022-12-27T05:03:17.336Z,2.05
2022-12-27T05:05:47.193Z,2.00
2022-12-27T05:08:34.657Z,2.00
2022-12-27T05:11:21.927Z,1.58
2022-12-27T05:14:02.359Z,1.83
2022-12-27T05:16:41.942Z,1.80
2022-12-27T05:19:12.339Z,1.73
2022-12-27T05:22:06.086Z,2.03
2022-12-27T05:24:55.222Z,1.73
2022-12-27T05:27:25.494Z,1.58
2022-12-27T05:29:53.276Z,1.88
2022-12-27T05:32:21.774Z,1.70
2022-12-27T05:34:51.589Z,1.65
2022-12-27T05:37:20.014Z,1.83
2022-12-27T05:39:47.747Z,1.80
2022-12-27T05:42:15.751Z,1.60
2022-12-27T05:44:43.499Z,1.70
2022-12-27T05:47:11.561Z,1.75
2022-12-27T05:49:39.373Z,1.75
2022-12-27T05:52:07.825Z,1.88
2022-12-27T05:54:36.754Z,2.25
2022-12-27T05:57:04.685Z,1.83
2022-12-27T05:59:34.487Z,1.75
2022-12-27T06:02:03.173Z,1.55
2022-12-27T06:04:31.078Z,1.75
2022-12-27T06:06:59.533Z,1.88
2022-12-27T06:09:29.735Z,1.75
2022-12-27T06:11:57.920Z,1.90
2022-12-27T06:14:26.178Z,2.08
2022-12-27T06:16:54.218Z,1.52
2022-12-27T06:19:22.780Z,1.63
2022-12-27T06:21:51.252Z,1.45
2022-12-27T06:24:19.015Z,2.03
2022-12-27T06:26:50.784Z,1.65
2022-12-27T06:29:19.616Z,1.75
2022-12-27T06:31:49.126Z,1.90
2022-12-27T06:34:18.169Z,2.00
2022-12-27T06:36:50.924Z,1.55
2022-12-27T06:39:20.864Z,2.03
2022-12-27T06:41:50.532Z,1.75
2022-12-27T06:44:21.103Z,1.98
2022-12-27T06:46:50.641Z,1.77
2022-12-27T06:49:18.614Z,1.70
2022-12-27T06:51:55.710Z,1.95
2022-12-27T06:54:27.747Z,1.58
2022-12-27T06:56:56.928Z,1.63
2022-12-27T06:59:25.182Z,2.08
2022-12-27T07:01:54.191Z,1.95
2022-12-27T07:04:22.984Z,1.67
2022-12-27T07:06:52.078Z,1.42
2022-12-27T07:09:19.891Z,1.95
2022-12-27T07:11:48.069Z,1.80
2022-12-27T07:14:15.834Z,2.05
2022-12-27T07:16:44.395Z,1.90
2022-12-27T07:19:12.879Z,2.30
2022-12-27T07:21:41.357Z,2.10
2022-12-27T07:24:09.654Z,1.70
2022-12-27T07:26:39.508Z,1.85
2022-12-27T07:29:07.340Z,1.80
2022-12-27T07:31:35.836Z,2.70
2022-12-27T07:34:04.513Z,1.77
2022-12-27T07:36:38.916Z,1.80
2022-12-27T07:39:07.708Z,1.83
2022-12-27T07:41:37.239Z,1.50
2022-12-27T07:44:06.198Z,1.50
2022-12-27T07:46:34.533Z,1.80
2022-12-27T07:49:02.448Z,1.92
2022-12-27T07:51:30.719Z,2.35
2022-12-27T07:53:58.864Z,1.90
2022-12-27T07:56:28.787Z,1.63
2022-12-27T07:59:00.214Z,1.83
2022-12-27T08:01:31.201Z,1.90
2022-12-27T08:03:59.925Z,1.48
2022-12-27T08:06:33.302Z,2.58
2022-12-27T08:09:06.969Z,1.50
2022-12-27T08:11:35.716Z,1.88
2022-12-27T08:14:04.699Z,1.50
2022-12-27T08:16:32.579Z,1.75
2022-12-27T08:19:08.199Z,1.70
2022-12-27T08:21:37.931Z,1.50
2022-12-27T08:24:08.930Z,2.20
2022-12-27T08:26:40.237Z,2.33
2022-12-27T08:29:12.690Z,2.08
2022-12-27T08:31:41.892Z,1.67
2022-12-27T08:34:13.292Z,1.40
2022-12-27T08:36:56.903Z,2.78
2022-12-27T08:39:30.886Z,1.80
2022-12-27T08:41:59.555Z,1.90
2022-12-27T08:44:28.425Z,1.33
2022-12-27T08:46:58.841Z,1.75
2022-12-27T08:49:38.270Z,1.65
2022-12-27T08:52:21.731Z,2.05
2022-12-27T08:55:05.186Z,1.52
2022-12-27T08:57:37.254Z,1.90
2022-12-27T09:00:09.683Z,1.90
2022-12-27T09:06:12.277Z,1.67
2022-12-27T09:08:42.115Z,1.80
2022-12-27T09:11:14.613Z,1.60
2022-12-27T09:13:44.706Z,2.20
2022-12-27T09:16:19.316Z,1.60
2022-12-27T09:18:50.275Z,2.08
2022-12-27T09:21:20.085Z,1.73
2022-12-27T09:23:49.649Z,2.07
2022-12-27T09:26:20.356Z,1.40
2022-12-27T09:28:48.963Z,2.25
2022-12-27T09:31:18.938Z,1.52
2022-12-27T09:33:47.453Z,1.60
2022-12-27T09:36:18.228Z,2.10
2022-12-27T09:38:47.807Z,2.05
2022-12-27T09:45:00.514Z,1.70
2022-12-27T09:47:49.885Z,1.55
2022-12-27T09:50:42.533Z,1.80
2022-12-27T09:53:19.301Z,2.17
2022-12-27T09:55:58.016Z,1.60
2022-12-27T09:58:44.754Z,2.10
2022-12-27T10:01:23.137Z,1.70
2022-12-27T10:03:55.072Z,1.90
2022-12-27T10:06:38.223Z,1.67
2022-12-27T10:09:06.001Z,1.90
2022-12-27T10:11:55.927Z,1.88
2022-12-27T10:14:59.814Z,2.03
2022-12-27T10:20:13.981Z,1.90
2022-12-27T10:22:52.777Z,1.45
2022-12-27T10:25:23.430Z,1.73
2022-12-27T10:28:00.731Z,2.03
2022-12-27T10:30:31.442Z,1.70
2022-12-27T10:33:00.230Z,3.15
2022-12-27T10:35:29.129Z,2.00
2022-12-27T10:38:01.840Z,1.95
2022-12-27T10:40:37.540Z,1.77
2022-12-27T10:43:23.814Z,1.77
2022-12-27T10:45:52.929Z,2.00
2022-12-27T10:48:41.520Z,2.75
2022-12-27T10:51:18.908Z,1.77
2022-12-27T10:53:48.280Z,1.70
2022-12-27T10:56:29.345Z,1.85
2022-12-27T10:59:19.736Z,1.65
2022-12-27T11:02:00.077Z,2.08
2022-12-27T11:04:31.011Z,2.08
2022-12-27T11:07:02.952Z,2.08
2022-12-27T11:09:34.161Z,2.03
2022-12-27T11:12:32.250Z,2.13
2022-12-27T11:15:18.170Z,2.00
2022-12-27T11:17:52.974Z,2.40
2022-12-27T11:20:27.943Z,1.98
2022-12-27T11:23:05.566Z,2.63
2022-12-27T11:25:36.711Z,2.33
2022-12-27T11:28:18.723Z,2.20
2022-12-27T11:31:09.027Z,2.53
2022-12-27T11:33:41.198Z,2.22
2022-12-27T11:36:13.548Z,2.20
2022-12-27T11:38:45.126Z,2.67
2022-12-27T11:44:03.201Z,2.20
2022-12-27T11:46:57.036Z,2.25
2022-12-27T11:49:34.495Z,2.80
2022-12-27T11:52:40.448Z,2.45
2022-12-27T11:55:41.413Z,2.30
2022-12-27T11:58:13.076Z,2.50
2022-12-27T12:01:27.847Z,2.92
2022-12-27T12:04:21.039Z,2.40
2022-12-27T12:07:17.125Z,2.40
2022-12-27T12:10:06.267Z,2.40
2022-12-27T12:12:55.863Z,2.30
2022-12-27T12:15:52.313Z,2.30
2022-12-27T12:18:47.596Z,2.55
2022-12-27T12:21:42.187Z,3.30
2022-12-27T12:24:47.843Z,2.50
2022-12-27T12:27:44.450Z,2.53
2022-12-27T12:30:59.324Z,2.50
2022-12-27T12:33:58.520Z,2.28
2022-12-27T12:36:53.066Z,2.10
2022-12-27T12:39:52.185Z,1.83
2022-12-27T12:42:49.929Z,2.50
2022-12-27T12:45:42.428Z,2.25
2022-12-27T12:48:34.888Z,2.55
2022-12-27T12:51:47.510Z,1.90
2022-12-27T12:54:43.055Z,2.40
2022-12-27T12:57:31.801Z,2.20
2022-12-27T13:00:07.000Z,2.40
2022-12-27T13:02:53.479Z,2.38
2022-12-27T13:05:33.907Z,2.38
2022-12-27T13:08:39.807Z,2.08
2022-12-27T13:11:26.680Z,2.05
2022-12-27T13:14:25.693Z,2.15
2022-12-27T13:17:22.292Z,2.13
2022-12-27T13:20:20.755Z,2.03
2022-12-27T13:22:51.598Z,1.80
2022-12-27T13:25:44.188Z,2.33
2022-12-27T13:31:05.731Z,2.72
2022-12-27T13:34:02.376Z,2.08
2022-12-27T13:37:07.131Z,2.45
2022-12-27T13:40:20.807Z,2.30
2022-12-27T13:43:05.778Z,2.10
2022-12-27T13:45:52.091Z,2.45
2022-12-27T13:48:29.270Z,2.30
2022-12-27T13:51:16.609Z,2.50
2022-12-27T13:54:10.427Z,2.78
2022-12-27T13:57:12.667Z,3.78
2022-12-27T14:00:05.243Z,2.45
2022-12-27T14:02:49.914Z,2.67
2022-12-27T14:05:52.250Z,2.40
2022-12-27T14:09:08.248Z,3.47
2022-12-27T14:12:08.626Z,2.45
2022-12-27T14:14:40.034Z,2.63
2022-12-27T14:17:32.310Z,2.70
2022-12-27T14:20:31.302Z,2.35
2022-12-27T14:23:18.277Z,2.65
2022-12-27T14:26:32.448Z,2.72
2022-12-27T14:29:34.323Z,2.20
2022-12-27T14:32:18.019Z,2.65
2022-12-27T14:35:11.279Z,2.38
2022-12-27T14:38:16.026Z,2.22
2022-12-27T14:41:08.221Z,2.50
2022-12-27T14:44:13.516Z,2.92
2022-12-27T14:47:28.913Z,2.58
2022-12-27T14:50:15.638Z,3.25
2022-12-27T14:53:29.675Z,2.67
2022-12-27T14:56:07.569Z,3.50
2022-12-27T14:59:16.667Z,2.85
2022-12-27T15:02:07.744Z,2.38
2022-12-27T15:04:56.347Z,2.87
2022-12-27T15:07:45.294Z,2.75
2022-12-27T15:10:43.941Z,2.78
2022-12-27T15:13:15.134Z,2.58
2022-12-27T15:15:48.811Z,2.60
2022-12-27T15:18:26.322Z,2.60
2022-12-27T15:21:16.133Z,3.22
2022-12-27T15:24:11.599Z,3.05
2022-12-27T15:26:49.551Z,2.72
2022-12-27T15:29:36.760Z,2.60
2022-12-27T15:32:10.359Z,2.80
2022-12-27T15:35:01.729Z,3.22
2022-12-27T15:37:48.091Z,3.65
2022-12-27T15:40:38.867Z,2.60
2022-12-27T15:43:29.208Z,3.22
2022-12-27T15:46:18.905Z,2.70
2022-12-27T15:49:20.288Z,2.42
2022-12-27T15:52:15.735Z,2.72
2022-12-27T15:55:09.727Z,3.00
2022-12-27T15:58:15.125Z,2.30
2022-12-27T16:00:44.917Z,3.00
2022-12-27T16:03:37.158Z,3.42
2022-12-27T16:06:09.326Z,3.10
2022-12-27T16:08:40.504Z,2.60
2022-12-27T16:11:13.972Z,3.00
2022-12-27T16:13:51.382Z,3.00
2022-12-27T16:16:32.865Z,2.60
2022-12-27T16:19:13.729Z,3.30
2022-12-27T16:21:45.109Z,3.20
2022-12-27T16:24:18.472Z,2.95
2022-12-27T16:26:58.313Z,3.38
2022-12-27T16:29:34.475Z,2.90
2022-12-27T16:32:16.849Z,3.20
2022-12-27T16:34:47.446Z,3.80
2022-12-27T16:37:31.596Z,2.65
2022-12-27T16:40:14.712Z,3.22
2022-12-27T16:42:54.525Z,3.00
2022-12-27T16:45:34.386Z,2.88
2022-12-27T16:48:19.813Z,2.78
2022-12-27T16:51:01.216Z,3.25
2022-12-27T16:53:44.485Z,3.93
2022-12-27T16:56:33.887Z,14.50
2022-12-27T16:59:01.821Z,15.45
2022-12-27T17:01:36.608Z,10.07
2022-12-27T17:04:04.731Z,7.30
2022-12-27T17:06:33.995Z,20.08
2022-12-27T17:09:09.669Z,5.88
2022-12-27T17:11:50.074Z,6.63
2022-12-27T17:14:27.983Z,5.35
2022-12-27T17:17:03.981Z,5.55
2022-12-27T17:19:44.346Z,9.15
2022-12-27T17:22:15.967Z,8.97
2022-12-27T17:24:46.934Z,4.68
2022-12-27T17:28:00.408Z,5.20
2022-12-27T17:31:03.702Z,5.00
2022-12-27T17:33:49.928Z,4.40
2022-12-27T17:36:48.365Z,2.72
2022-12-27T17:39:36.126Z,2.70
2022-12-27T17:42:40.377Z,3.13
2022-12-27T17:45:53.932Z,3.22
2022-12-27T17:48:32.756Z,2.92
2022-12-27T17:51:10.436Z,3.25
2022-12-27T17:54:08.709Z,2.90
2022-12-27T17:57:22.618Z,3.50
2022-12-27T17:59:51.221Z,3.22
2022-12-27T18:02:29.538Z,3.03
2022-12-27T18:05:03.474Z,2.88
2022-12-27T18:07:33.915Z,3.40
2022-12-27T18:10:05.441Z,2.90
2022-12-27T18:12:41.097Z,2.78
2022-12-27T18:15:21.070Z,3.15
2022-12-27T18:18:08.850Z,2.92
2022-12-27T18:20:38.563Z,2.97
2022-12-27T18:23:15.450Z,3.05
2022-12-27T18:25:51.434Z,3.22
2022-12-27T18:28:34.071Z,3.13
2022-12-27T18:31:15.070Z,2.95
2022-12-27T18:33:50.134Z,2.70
2022-12-27T18:36:27.231Z,2.80
2022-12-27T18:38:59.785Z,4.00
2022-12-27T18:41:34.732Z,3.83
2022-12-27T18:44:03.645Z,3.50
2022-12-27T18:46:37.990Z,3.40
2022-12-27T18:49:07.046Z,3.50
2022-12-27T18:51:37.468Z,3.17
2022-12-27T18:54:34.643Z,2.60
2022-12-27T18:57:05.644Z,2.80
2022-12-27T18:59:37.023Z,2.28
2022-12-27T19:02:51.481Z,2.38
2022-12-27T19:05:20.058Z,2.33
2022-12-27T19:07:59.696Z,2.00
2022-12-27T19:10:30.855Z,2.38
2022-12-27T19:13:01.731Z,2.22
2022-12-27T19:15:48.063Z,2.50
2022-12-27T19:18:42.361Z,2.53
2022-12-27T19:21:15.196Z,3.05
2022-12-27T19:23:49.449Z,2.40
2022-12-27T19:26:18.955Z,2.40
2022-12-27T19:29:02.985Z,2.67
2022-12-27T19:31:31.943Z,2.47
2022-12-27T19:34:07.341Z,2.42
2022-12-27T19:36:41.465Z,2.88
2022-12-27T19:39:25.222Z,3.33
2022-12-27T19:42:00.399Z,3.17
2022-12-27T19:44:30.880Z,2.83
2022-12-27T19:46:59.958Z,3.30
2022-12-27T19:49:44.439Z,2.65
2022-12-27T19:52:20.677Z,2.80
2022-12-27T19:54:51.000Z,3.08
2022-12-27T19:57:19.866Z,2.95
2022-12-27T19:59:47.682Z,3.40
2022-12-27T20:02:15.887Z,2.33
2022-12-27T20:04:43.925Z,2.53
2022-12-27T20:07:23.375Z,3.00
2022-12-27T20:09:51.799Z,3.00
2022-12-27T20:12:19.997Z,2.78
2022-12-27T20:14:48.777Z,2.88
2022-12-27T20:17:16.835Z,2.60
2022-12-27T20:19:47.993Z,2.60
2022-12-27T20:22:16.265Z,3.13
2022-12-27T20:24:46.164Z,2.92
2022-12-27T20:27:14.208Z,3.00
2022-12-27T20:29:42.476Z,2.90
2022-12-27T20:32:10.674Z,2.50
2022-12-27T20:34:38.532Z,2.83
2022-12-27T20:37:07.219Z,2.60
2022-12-27T20:39:36.269Z,2.95
2022-12-27T20:42:05.248Z,2.53
2022-12-27T20:44:33.348Z,1.88
2022-12-27T20:47:01.544Z,2.20
2022-12-27T20:49:30.136Z,2.70
2022-12-27T20:51:58.600Z,2.40
2022-12-27T20:54:26.424Z,2.28
2022-12-27T20:56:54.447Z,2.35
2022-12-27T20:59:22.609Z,1.90
2022-12-27T21:01:56.807Z,2.88
2022-12-27T21:04:26.956Z,2.17
2022-12-27T21:06:55.557Z,2.50
2022-12-27T21:09:23.790Z,2.00
2022-12-27T21:11:53.158Z,2.00
2022-12-27T21:14:22.011Z,2.30
2022-12-27T21:16:50.376Z,1.88
2022-12-27T21:19:18.823Z,2.20
2022-12-27T21:21:46.991Z,1.98
2022-12-27T21:24:14.797Z,3.08
2022-12-27T21:26:43.328Z,2.38
2022-12-27T21:29:12.354Z,2.45
2022-12-27T21:31:40.441Z,2.50
2022-12-27T21:34:08.527Z,2.03
2022-12-27T21:36:38.445Z,2.33
2022-12-27T21:39:09.511Z,2.22
2022-12-27T21:41:39.549Z,2.42
2022-12-27T21:44:07.960Z,1.83
2022-12-27T21:46:39.570Z,2.20
2022-12-27T21:49:13.165Z,1.70
2022-12-27T21:51:44.185Z,2.17
2022-12-27T21:54:13.873Z,2.00
2022-12-27T21:56:43.043Z,1.95
2022-12-27T21:59:12.154Z,1.80
2022-12-27T22:01:50.022Z,1.92
2022-12-27T22:04:22.746Z,2.30
2022-12-27T22:06:51.440Z,2.65
2022-12-27T22:09:19.946Z,2.30
2022-12-27T22:11:49.036Z,1.90
2022-12-27T22:14:19.543Z,1.95
2022-12-27T22:16:49.984Z,1.85
2022-12-27T22:19:20.298Z,2.20
2022-12-27T22:21:48.419Z,1.83
2022-12-27T22:24:19.673Z,1.80
2022-12-27T22:26:50.351Z,1.80
2022-12-27T22:29:18.603Z,1.95
2022-12-27T22:31:50.633Z,1.85
2022-12-27T22:34:19.064Z,1.60
2022-12-27T22:36:52.430Z,1.70
2022-12-27T22:39:20.877Z,1.60
2022-12-27T22:41:49.457Z,1.50
2022-12-27T22:44:17.223Z,1.70
2022-12-27T22:49:33.536Z,1.30
2022-12-27T22:52:02.193Z,1.30
2022-12-27T22:55:05.317Z,1.40
2022-12-27T22:57:18.904Z,1.42
2022-12-27T22:59:47.185Z,1.35
2022-12-27T23:02:15.798Z,1.00
2022-12-27T23:06:40.801Z,1.17
2022-12-27T23:09:09.774Z,0.80
2022-12-27T23:11:40.947Z,1.33
2022-12-27T23:16:46.332Z,1.27
2022-12-27T23:19:19.194Z,1.30
2022-12-27T23:21:47.955Z,1.02
2022-12-27T23:24:16.416Z,1.50
2022-12-27T23:26:45.523Z,1.02
2022-12-27T23:29:14.595Z,1.42
2022-12-27T23:31:54.671Z,1.25
2022-12-27T23:34:28.600Z,1.10
2022-12-27T23:37:00.135Z,0.90
2022-12-27T23:39:28.759Z,1.10
2022-12-27T23:41:57.226Z,0.82
2022-12-27T23:44:26.643Z,1.25
2022-12-27T23:47:06.220Z,1.10
2022-12-27T23:49:36.760Z,0.47
2022-12-27T23:52:05.196Z,1.23
2022-12-27T23:54:33.304Z,0.95
2022-12-27T23:57:22.438Z,1.00
2022-12-27T23:59:51.754Z,1.27
